Hauptseite
METAR-TAF:

METAR-TAF

Flughäfen :

Flughafen Hannover-Langenhagen

Hannover, Deutschland

Breite: 52-28N, Länge: 009-41E, Höhe: 56 m

Beobachtung

Neuester Wetterbericht von vor 10 Minuten, um 23:20 UTC
Wind 4 kt aus Ost
Temperatur 16°C
Luftfeuchtigkeit 68%
Luftdruck 1020 hPa
Sichtweite 10 km oder mehr
keine Wolken unter 1500 m und keine Kumulonimbus oder Gewitterwolken

METAR: EDDV 212320Z 09004KT CAVOK 16/10 Q1020

Zeit: 01:30 (23:30 UTC)

Prognose

Neuester Wetterbericht von vor 6 Stunden und 30 Minuten, um 17:00 UTC
Gültige Prognose vom 21 um 18 UTC bis 22 um 18 UTC
Wind 4 kt aus Ost
Sichtweite 10 km oder mehr
keine Wolken unter 1500 m und keine Kumulonimbus oder Gewitterwolken
Übergehend zu
vom 22 um 07 UTC bis 22 um 09 UTC
Wind 7 kt aus Süd
Übergehend zu
vom 22 um 14 UTC bis 22 um 16 UTC
Wind 5 kt aus West

TAF: EDDV 211700Z 2118/2218 10004KT CAVOK BECMG 2207/2209 17007KT BECMG 2214/2216 26005KT

Wetterbeobachtungen und Prognosen von mehr als 4000 Flughäfen (METAR und TAF Bericht).

Die verfügbaren Stationen werden durch gelbe und rote Markierungen auf der Karte dargestellt.

Führen Sie die Maus auf sie, um den Namen der Station zu sehen.

Darauf klicken, um die Beobachtung von Wetterbeobachtungen und Prognosen zu sehen.

Um die Karte zu ändern : klicken Sie auf den grünen Tasten mit einem schwarzen Kreuz Zum Vergrößern, auf den grünen Button mit einem Gedankenstrich zu verkleinern, oder auf die grünen Pfeile für benachbarte Karten.


METAR-TAF: